NPV7712 EKVG-BIIS
Flight info
| Callsign | NPV7712 |
|---|---|
| Flight time | 1h 30m |
| Altitude | 36000 |
| Route | MY DCT HN DCT RE |
| Aircraft | A319/M-SDE3FGHIRWY/LB1 |
Departure
| Time | 2026-05-05 17:04 |
|---|---|
| Airport | Vágar Airport (EKVG) |
Arrival
| Time | 2026-05-05 18:35 |
|---|---|
| Airport | Ísafjörður Airport (BIIS) |
| Time | Latitude | Longitude | Altitude | Speed | Heading |
|---|---|---|---|---|---|
| 2026-05-05 16:43 | 62.06715 | -7.28014 | 282 ft | 0 kts | 74° |
| 2026-05-05 16:59 | 62.06714 | -7.28002 | 282 ft | 3 kts | 109° |
| 2026-05-05 16:59 | 62.06697 | -7.27998 | 283 ft | 4 kts | 210° |
| 2026-05-05 16:59 | 62.06677 | -7.28024 | 283 ft | 6 kts | 212° |
| 2026-05-05 16:59 | 62.06643 | -7.28066 | 285 ft | 8 kts | 205° |
| 2026-05-05 17:00 | 62.06572 | -7.28094 | 290 ft | 16 kts | 193° |
| 2026-05-05 17:00 | 62.06498 | -7.28153 | 294 ft | 11 kts | 183° |
| 2026-05-05 17:00 | 62.06466 | -7.28104 | 297 ft | 10 kts | 119° |
| 2026-05-05 17:00 | 62.06429 | -7.27961 | 301 ft | 21 kts | 121° |
| 2026-05-05 17:01 | 62.06377 | -7.27764 | 300 ft | 17 kts | 114° |
| 2026-05-05 17:01 | 62.06330 | -7.27587 | 299 ft | 18 kts | 119° |
| 2026-05-05 17:01 | 62.06283 | -7.27402 | 296 ft | 20 kts | 119° |
| 2026-05-05 17:01 | 62.06237 | -7.27221 | 290 ft | 26 kts | 118° |
| 2026-05-05 17:02 | 62.06162 | -7.26916 | 274 ft | 36 kts | 118° |
| 2026-05-05 17:02 | 62.06065 | -7.26530 | 239 ft | 45 kts | 119° |
| 2026-05-05 17:02 | 62.05986 | -7.26228 | 204 ft | 24 kts | 119° |
| 2026-05-05 17:02 | 62.05951 | -7.26064 | 183 ft | 18 kts | 101° |
| 2026-05-05 17:03 | 62.05936 | -7.25968 | 172 ft | 4 kts | 191° |
| 2026-05-05 17:03 | 62.05933 | -7.25993 | 175 ft | 0 kts | 284° |
| 2026-05-05 17:03 | 62.05955 | -7.26085 | 186 ft | 24 kts | 298° |
| 2026-05-05 17:03 | 62.06068 | -7.26533 | 239 ft | 68 kts | 297° |
| 2026-05-05 17:04 | 62.06285 | -7.27410 | 297 ft | 113 kts | 298° |
| 2026-05-05 17:04 | 62.06617 | -7.28732 | 443 ft | 143 kts | 298° |
| 2026-05-05 17:04 | 62.06946 | -7.30024 | 903 ft | 144 kts | 297° |
| 2026-05-05 17:04 | 62.07225 | -7.31140 | 1424 ft | 140 kts | 296° |
| 2026-05-05 17:05 | 62.07457 | -7.32216 | 1889 ft | 138 kts | 290° |
| 2026-05-05 17:05 | 62.07639 | -7.33303 | 2240 ft | 139 kts | 288° |
| 2026-05-05 17:05 | 62.07803 | -7.34377 | 2464 ft | 147 kts | 287° |
| 2026-05-05 17:05 | 62.07922 | -7.35178 | 2622 ft | 154 kts | 287° |
| 2026-05-05 17:06 | 62.08066 | -7.36191 | 2819 ft | 161 kts | 289° |
| 2026-05-05 17:06 | 62.08350 | -7.38120 | 3186 ft | 176 kts | 289° |
| 2026-05-05 17:06 | 62.08675 | -7.40272 | 3616 ft | 191 kts | 289° |
| 2026-05-05 17:06 | 62.09064 | -7.42831 | 4116 ft | 208 kts | 289° |
| 2026-05-05 17:07 | 62.09462 | -7.45747 | 4680 ft | 224 kts | 284° |
| 2026-05-05 17:07 | 62.09786 | -7.48925 | 5238 ft | 240 kts | 282° |
| 2026-05-05 17:07 | 62.10026 | -7.51487 | 5750 ft | 249 kts | 282° |
| 2026-05-05 17:07 | 62.10181 | -7.53149 | 6163 ft | 251 kts | 281° |
| 2026-05-05 17:08 | 62.10564 | -7.56749 | 7093 ft | 253 kts | 287° |
| 2026-05-05 17:08 | 62.11263 | -7.60219 | 7976 ft | 258 kts | 297° |
| 2026-05-05 17:08 | 62.12232 | -7.63395 | 8811 ft | 263 kts | 302° |
| 2026-05-05 17:08 | 62.13160 | -7.66187 | 9527 ft | 267 kts | 302° |
| 2026-05-05 17:09 | 62.14236 | -7.69402 | 10325 ft | 272 kts | 301° |
| 2026-05-05 17:09 | 62.15157 | -7.72164 | 10823 ft | 282 kts | 301° |
| 2026-05-05 17:09 | 62.15932 | -7.74499 | 11105 ft | 294 kts | 301° |
| 2026-05-05 17:09 | 62.17140 | -7.78148 | 11687 ft | 306 kts | 301° |
| 2026-05-05 17:10 | 62.18364 | -7.81840 | 12453 ft | 311 kts | 301° |
| 2026-05-05 17:10 | 62.19625 | -7.85654 | 13233 ft | 315 kts | 301° |
| 2026-05-05 17:10 | 62.20874 | -7.89441 | 13978 ft | 318 kts | 301° |
| 2026-05-05 17:10 | 62.22144 | -7.93298 | 14707 ft | 322 kts | 301° |
| 2026-05-05 17:11 | 62.23447 | -7.97264 | 15291 ft | 330 kts | 301° |
| 2026-05-05 17:11 | 62.24771 | -8.01306 | 15850 ft | 338 kts | 301° |
| 2026-05-05 17:11 | 62.26125 | -8.05441 | 16534 ft | 341 kts | 301° |
| 2026-05-05 17:11 | 62.27501 | -8.09647 | 17212 ft | 345 kts | 301° |
| 2026-05-05 17:12 | 62.28862 | -8.13817 | 17843 ft | 348 kts | 301° |
| 2026-05-05 17:12 | 62.30247 | -8.18067 | 18463 ft | 351 kts | 301° |
| 2026-05-05 17:12 | 62.31654 | -8.22395 | 19071 ft | 355 kts | 301° |
| 2026-05-05 17:12 | 62.33058 | -8.26723 | 19658 ft | 358 kts | 301° |
| 2026-05-05 17:13 | 62.34496 | -8.31165 | 20236 ft | 361 kts | 301° |
| 2026-05-05 17:13 | 62.35917 | -8.35560 | 20790 ft | 365 kts | 301° |
| 2026-05-05 17:13 | 62.37360 | -8.40036 | 21341 ft | 368 kts | 301° |
| 2026-05-05 17:13 | 62.38824 | -8.44582 | 21875 ft | 371 kts | 301° |
| 2026-05-05 17:14 | 62.40291 | -8.49151 | 22384 ft | 374 kts | 301° |
| 2026-05-05 17:14 | 62.41774 | -8.53775 | 22887 ft | 377 kts | 301° |
| 2026-05-05 17:14 | 62.43264 | -8.58432 | 23380 ft | 380 kts | 301° |
| 2026-05-05 17:14 | 62.44766 | -8.63137 | 23852 ft | 383 kts | 301° |
| 2026-05-05 17:15 | 62.46271 | -8.67864 | 24311 ft | 386 kts | 300° |
| 2026-05-05 17:15 | 62.47796 | -8.72670 | 24777 ft | 388 kts | 300° |
| 2026-05-05 17:15 | 62.49312 | -8.77459 | 25215 ft | 391 kts | 300° |
| 2026-05-05 17:15 | 62.50852 | -8.82331 | 25640 ft | 394 kts | 300° |
| 2026-05-05 17:16 | 62.52401 | -8.87239 | 26061 ft | 396 kts | 300° |
| 2026-05-05 17:16 | 62.53943 | -8.92135 | 26461 ft | 399 kts | 301° |
| 2026-05-05 17:16 | 62.55513 | -8.97129 | 26828 ft | 403 kts | 301° |
| 2026-05-05 17:16 | 62.57080 | -9.02125 | 27173 ft | 406 kts | 301° |
| 2026-05-05 17:17 | 62.58676 | -9.07226 | 27525 ft | 409 kts | 301° |
| 2026-05-05 17:17 | 62.60247 | -9.12251 | 27854 ft | 413 kts | 301° |
| 2026-05-05 17:17 | 62.61741 | -9.17041 | 28165 ft | 415 kts | 301° |
| 2026-05-05 17:17 | 62.63281 | -9.21985 | 28498 ft | 418 kts | 301° |
| 2026-05-05 17:18 | 62.64283 | -9.25209 | 28713 ft | 419 kts | 301° |
| 2026-05-05 17:18 | 62.65376 | -9.28732 | 28942 ft | 420 kts | 301° |
| 2026-05-05 17:18 | 62.67006 | -9.33991 | 29278 ft | 422 kts | 301° |
| 2026-05-05 17:18 | 62.68652 | -9.39317 | 29643 ft | 423 kts | 301° |
| 2026-05-05 17:19 | 62.70285 | -9.44615 | 30089 ft | 422 kts | 301° |
| 2026-05-05 17:19 | 62.71903 | -9.49876 | 30528 ft | 421 kts | 301° |
| 2026-05-05 17:19 | 62.73514 | -9.55126 | 30933 ft | 420 kts | 301° |
| 2026-05-05 17:19 | 62.75125 | -9.60392 | 31314 ft | 419 kts | 301° |
| 2026-05-05 17:20 | 62.76726 | -9.65637 | 31685 ft | 418 kts | 300° |
| 2026-05-05 17:20 | 62.78325 | -9.70894 | 32061 ft | 417 kts | 300° |
| 2026-05-05 17:20 | 62.79939 | -9.76219 | 32435 ft | 416 kts | 300° |
| 2026-05-05 17:20 | 62.81531 | -9.81477 | 32792 ft | 416 kts | 300° |
| 2026-05-05 17:21 | 62.83099 | -9.86670 | 33126 ft | 415 kts | 300° |
| 2026-05-05 17:21 | 62.84672 | -9.91888 | 33462 ft | 414 kts | 300° |
| 2026-05-05 17:21 | 62.86235 | -9.97080 | 33789 ft | 413 kts | 300° |
| 2026-05-05 17:22 | 62.89230 | -10.07060 | 34378 ft | 412 kts | 300° |
| 2026-05-05 17:22 | 62.90796 | -10.12297 | 34668 ft | 411 kts | 300° |
| 2026-05-05 17:22 | 62.92335 | -10.17454 | 34943 ft | 411 kts | 300° |
| 2026-05-05 17:22 | 62.93899 | -10.22710 | 35213 ft | 411 kts | 300° |
| 2026-05-05 17:23 | 62.95467 | -10.27988 | 35476 ft | 410 kts | 300° |
| 2026-05-05 17:23 | 62.97003 | -10.33168 | 35722 ft | 410 kts | 300° |
| 2026-05-05 17:23 | 62.98558 | -10.38428 | 35969 ft | 410 kts | 300° |
| 2026-05-05 17:23 | 63.00088 | -10.43619 | 36114 ft | 410 kts | 300° |
| 2026-05-05 17:24 | 63.01650 | -10.48926 | 36123 ft | 415 kts | 300° |
| 2026-05-05 17:24 | 63.04800 | -10.59675 | 36127 ft | 421 kts | 300° |
| 2026-05-05 17:25 | 63.07939 | -10.70433 | 36127 ft | 420 kts | 299° |
| 2026-05-05 17:25 | 63.11083 | -10.81261 | 36126 ft | 421 kts | 300° |
| 2026-05-05 17:26 | 63.14243 | -10.92112 | 36127 ft | 421 kts | 300° |
| 2026-05-05 17:26 | 63.17379 | -11.02973 | 36127 ft | 422 kts | 300° |
| 2026-05-05 17:27 | 63.20511 | -11.13886 | 36135 ft | 422 kts | 300° |
| 2026-05-05 17:27 | 63.23655 | -11.24902 | 36170 ft | 422 kts | 300° |
| 2026-05-05 17:28 | 63.26765 | -11.35867 | 36208 ft | 422 kts | 300° |
| 2026-05-05 17:28 | 63.29885 | -11.46919 | 36227 ft | 422 kts | 300° |
| 2026-05-05 17:29 | 63.32981 | -11.57944 | 36234 ft | 422 kts | 300° |
| 2026-05-05 17:29 | 63.35980 | -11.68680 | 36236 ft | 422 kts | 299° |
| 2026-05-05 17:30 | 63.38980 | -11.79491 | 36236 ft | 422 kts | 299° |
| 2026-05-05 17:30 | 63.42062 | -11.90641 | 36236 ft | 422 kts | 299° |
| 2026-05-05 17:31 | 63.45104 | -12.01692 | 36236 ft | 422 kts | 299° |
| 2026-05-05 17:31 | 63.48169 | -12.12877 | 36236 ft | 422 kts | 299° |
| 2026-05-05 17:32 | 63.51213 | -12.24038 | 36236 ft | 422 kts | 299° |
| 2026-05-05 17:32 | 63.53789 | -12.33524 | 36236 ft | 422 kts | 299° |
| 2026-05-05 17:33 | 63.56797 | -12.44654 | 36236 ft | 422 kts | 299° |
| 2026-05-05 17:33 | 63.59814 | -12.55880 | 36236 ft | 422 kts | 299° |
| 2026-05-05 17:34 | 63.62839 | -12.67191 | 36237 ft | 422 kts | 298° |
| 2026-05-05 17:34 | 63.65834 | -12.78475 | 36236 ft | 422 kts | 298° |
| 2026-05-05 17:35 | 63.68809 | -12.89724 | 36236 ft | 422 kts | 298° |
| 2026-05-05 17:35 | 63.71798 | -13.01077 | 36236 ft | 422 kts | 298° |
| 2026-05-05 17:36 | 63.74765 | -13.12412 | 36236 ft | 424 kts | 299° |
| 2026-05-05 17:36 | 63.77757 | -13.23893 | 36236 ft | 425 kts | 299° |
| 2026-05-05 17:37 | 63.80734 | -13.35356 | 36236 ft | 424 kts | 299° |
| 2026-05-05 17:37 | 63.83686 | -13.46789 | 36236 ft | 424 kts | 299° |
| 2026-05-05 17:38 | 63.86646 | -13.58313 | 36236 ft | 424 kts | 299° |
| 2026-05-05 17:38 | 63.89579 | -13.69807 | 36236 ft | 424 kts | 298° |
| 2026-05-05 17:39 | 63.92495 | -13.81307 | 36236 ft | 424 kts | 298° |
| 2026-05-05 17:39 | 63.95314 | -13.92469 | 36236 ft | 423 kts | 298° |
| 2026-05-05 17:40 | 63.98204 | -14.03961 | 36236 ft | 423 kts | 298° |
| 2026-05-05 17:40 | 64.00922 | -14.14824 | 36236 ft | 423 kts | 298° |
| 2026-05-05 17:41 | 64.03788 | -14.26331 | 36236 ft | 423 kts | 298° |
| 2026-05-05 17:41 | 64.06689 | -14.38044 | 36236 ft | 423 kts | 298° |
| 2026-05-05 17:42 | 64.09563 | -14.49710 | 36236 ft | 423 kts | 298° |
| 2026-05-05 17:42 | 64.12440 | -14.61376 | 36237 ft | 423 kts | 298° |
| 2026-05-05 17:43 | 64.15318 | -14.73113 | 36236 ft | 423 kts | 297° |
| 2026-05-05 17:43 | 64.18012 | -14.84221 | 36236 ft | 423 kts | 297° |
| 2026-05-05 17:44 | 64.20833 | -14.95925 | 36236 ft | 423 kts | 297° |
| 2026-05-05 17:44 | 64.23656 | -15.07713 | 36236 ft | 422 kts | 298° |
| 2026-05-05 17:45 | 64.26471 | -15.19491 | 36236 ft | 422 kts | 299° |
| 2026-05-05 17:45 | 64.29484 | -15.30988 | 36236 ft | 423 kts | 301° |
| 2026-05-05 17:46 | 64.32564 | -15.42456 | 36236 ft | 422 kts | 301° |
| 2026-05-05 17:46 | 64.35616 | -15.53886 | 36236 ft | 422 kts | 301° |
| 2026-05-05 17:47 | 64.38689 | -15.65469 | 36236 ft | 422 kts | 300° |
| 2026-05-05 17:47 | 64.41721 | -15.76991 | 36236 ft | 422 kts | 300° |
| 2026-05-05 17:48 | 64.44746 | -15.88542 | 36236 ft | 422 kts | 300° |
| 2026-05-05 17:48 | 64.47778 | -16.00167 | 36236 ft | 422 kts | 300° |
| 2026-05-05 17:49 | 64.50811 | -16.11857 | 36236 ft | 422 kts | 300° |
| 2026-05-05 17:49 | 64.53705 | -16.23065 | 36236 ft | 422 kts | 300° |
| 2026-05-05 17:50 | 64.55054 | -16.28308 | 36236 ft | 422 kts | 300° |
| 2026-05-05 17:50 | 64.56964 | -16.35751 | 36236 ft | 422 kts | 300° |
| 2026-05-05 17:51 | 64.59351 | -16.45088 | 36244 ft | 422 kts | 300° |
| 2026-05-05 17:51 | 64.62151 | -16.56089 | 36267 ft | 422 kts | 300° |
| 2026-05-05 17:52 | 64.63831 | -16.62717 | 36283 ft | 422 kts | 300° |
| 2026-05-05 17:52 | 64.66760 | -16.74345 | 36303 ft | 422 kts | 299° |
| 2026-05-05 17:53 | 64.69695 | -16.86065 | 36312 ft | 421 kts | 300° |
| 2026-05-05 17:53 | 64.72010 | -16.95354 | 36316 ft | 420 kts | 300° |
| 2026-05-05 17:54 | 64.73051 | -16.99540 | 36316 ft | 420 kts | 300° |
| 2026-05-05 17:54 | 64.75240 | -17.08358 | 36317 ft | 421 kts | 300° |
| 2026-05-05 17:55 | 64.76668 | -17.14121 | 36318 ft | 421 kts | 300° |
| 2026-05-05 17:55 | 64.79514 | -17.25655 | 36318 ft | 421 kts | 300° |
| 2026-05-05 17:56 | 64.82368 | -17.37290 | 36318 ft | 421 kts | 300° |
| 2026-05-05 17:56 | 64.85265 | -17.49170 | 36318 ft | 421 kts | 300° |
| 2026-05-05 17:57 | 64.88152 | -17.61078 | 36318 ft | 421 kts | 300° |
| 2026-05-05 17:57 | 64.91022 | -17.72987 | 36319 ft | 421 kts | 299° |
| 2026-05-05 17:58 | 64.93902 | -17.85011 | 36319 ft | 421 kts | 299° |
| 2026-05-05 17:58 | 64.96749 | -17.96952 | 36319 ft | 421 kts | 299° |
| 2026-05-05 17:59 | 64.99603 | -18.08981 | 36318 ft | 420 kts | 299° |
| 2026-05-05 17:59 | 65.01729 | -18.17982 | 36318 ft | 420 kts | 299° |
| 2026-05-05 18:00 | 65.04546 | -18.29970 | 36318 ft | 420 kts | 299° |
| 2026-05-05 18:00 | 65.07372 | -18.42062 | 36318 ft | 420 kts | 299° |
| 2026-05-05 18:01 | 65.10162 | -18.54061 | 36318 ft | 420 kts | 299° |
| 2026-05-05 18:01 | 65.12978 | -18.66141 | 36319 ft | 420 kts | 298° |
| 2026-05-05 18:02 | 65.15785 | -18.78295 | 36318 ft | 420 kts | 298° |
| 2026-05-05 18:02 | 65.18567 | -18.90453 | 36318 ft | 420 kts | 298° |
| 2026-05-05 18:03 | 65.21335 | -19.02628 | 36319 ft | 420 kts | 298° |
| 2026-05-05 18:03 | 65.24099 | -19.14869 | 36319 ft | 418 kts | 299° |
| 2026-05-05 18:04 | 65.26841 | -19.27073 | 36319 ft | 418 kts | 299° |
| 2026-05-05 18:04 | 65.29558 | -19.39218 | 36319 ft | 418 kts | 299° |
| 2026-05-05 18:05 | 65.32280 | -19.51463 | 36319 ft | 418 kts | 299° |
| 2026-05-05 18:05 | 65.34994 | -19.63747 | 36319 ft | 418 kts | 299° |
| 2026-05-05 18:06 | 65.37685 | -19.76015 | 36318 ft | 418 kts | 298° |
| 2026-05-05 18:06 | 65.40362 | -19.88296 | 36318 ft | 418 kts | 298° |
| 2026-05-05 18:07 | 65.43036 | -20.00618 | 36312 ft | 418 kts | 298° |
| 2026-05-05 18:07 | 65.44933 | -20.09401 | 36247 ft | 417 kts | 298° |
| 2026-05-05 18:07 | 65.46204 | -20.15309 | 35921 ft | 413 kts | 298° |
| 2026-05-05 18:08 | 65.47520 | -20.21439 | 34945 ft | 417 kts | 298° |
| 2026-05-05 18:08 | 65.48855 | -20.27670 | 33861 ft | 421 kts | 298° |
| 2026-05-05 18:08 | 65.50183 | -20.33892 | 32840 ft | 422 kts | 298° |
| 2026-05-05 18:08 | 65.51514 | -20.40143 | 31820 ft | 423 kts | 298° |
| 2026-05-05 18:09 | 65.52844 | -20.46406 | 30766 ft | 424 kts | 298° |
| 2026-05-05 18:09 | 65.54090 | -20.52298 | 29737 ft | 425 kts | 298° |
| 2026-05-05 18:09 | 65.54958 | -20.56407 | 28998 ft | 427 kts | 298° |
| 2026-05-05 18:09 | 65.56284 | -20.62703 | 28063 ft | 432 kts | 298° |
| 2026-05-05 18:10 | 65.57613 | -20.69037 | 27360 ft | 430 kts | 297° |
| 2026-05-05 18:10 | 65.58950 | -20.75440 | 26796 ft | 424 kts | 297° |
| 2026-05-05 18:10 | 65.60258 | -20.81720 | 26254 ft | 419 kts | 297° |
| 2026-05-05 18:10 | 65.61556 | -20.87966 | 25671 ft | 415 kts | 297° |
| 2026-05-05 18:11 | 65.62830 | -20.94117 | 25099 ft | 411 kts | 297° |
| 2026-05-05 18:11 | 65.64086 | -21.00207 | 24550 ft | 406 kts | 297° |
| 2026-05-05 18:11 | 65.65334 | -21.06271 | 23996 ft | 402 kts | 298° |
| 2026-05-05 18:11 | 65.66552 | -21.12205 | 23429 ft | 399 kts | 298° |
| 2026-05-05 18:12 | 65.67778 | -21.18180 | 22843 ft | 396 kts | 298° |
| 2026-05-05 18:12 | 65.68986 | -21.24077 | 22287 ft | 393 kts | 298° |
| 2026-05-05 18:12 | 65.70172 | -21.29879 | 21748 ft | 389 kts | 298° |
| 2026-05-05 18:12 | 65.71361 | -21.35716 | 21201 ft | 386 kts | 298° |
| 2026-05-05 18:13 | 65.72528 | -21.41466 | 20657 ft | 382 kts | 298° |
| 2026-05-05 18:13 | 65.73699 | -21.47253 | 20005 ft | 382 kts | 298° |
| 2026-05-05 18:13 | 65.74848 | -21.52950 | 19514 ft | 378 kts | 298° |
| 2026-05-05 18:13 | 65.75988 | -21.58617 | 19050 ft | 373 kts | 298° |
| 2026-05-05 18:14 | 65.77119 | -21.64253 | 18592 ft | 368 kts | 298° |
| 2026-05-05 18:14 | 65.78223 | -21.69781 | 18140 ft | 364 kts | 298° |
| 2026-05-05 18:14 | 65.79321 | -21.75293 | 17690 ft | 360 kts | 298° |
| 2026-05-05 18:14 | 65.80392 | -21.80684 | 17251 ft | 357 kts | 298° |
| 2026-05-05 18:15 | 65.81467 | -21.86103 | 16809 ft | 354 kts | 298° |
| 2026-05-05 18:15 | 65.82521 | -21.91427 | 16375 ft | 351 kts | 298° |
| 2026-05-05 18:15 | 65.83570 | -21.96741 | 15940 ft | 348 kts | 298° |
| 2026-05-05 18:15 | 65.84618 | -22.02056 | 15504 ft | 346 kts | 298° |
| 2026-05-05 18:16 | 65.85648 | -22.07293 | 15072 ft | 343 kts | 298° |
| 2026-05-05 18:16 | 65.86673 | -22.12522 | 14642 ft | 341 kts | 298° |
| 2026-05-05 18:16 | 65.87685 | -22.17690 | 14215 ft | 338 kts | 298° |
| 2026-05-05 18:16 | 65.88681 | -22.22794 | 13795 ft | 335 kts | 298° |
| 2026-05-05 18:17 | 65.89676 | -22.27915 | 13371 ft | 333 kts | 298° |
| 2026-05-05 18:17 | 65.90586 | -22.32609 | 12980 ft | 331 kts | 298° |
| 2026-05-05 18:17 | 65.91387 | -22.36743 | 12636 ft | 329 kts | 298° |
| 2026-05-05 18:17 | 65.92203 | -22.40824 | 12293 ft | 326 kts | 301° |
| 2026-05-05 18:18 | 65.93089 | -22.44689 | 11964 ft | 323 kts | 304° |
| 2026-05-05 18:18 | 65.94160 | -22.48761 | 11601 ft | 320 kts | 307° |
| 2026-05-05 18:18 | 65.95416 | -22.53276 | 11195 ft | 318 kts | 308° |
| 2026-05-05 18:18 | 65.96073 | -22.55621 | 10981 ft | 316 kts | 308° |
| 2026-05-05 18:19 | 65.97170 | -22.59535 | 10625 ft | 314 kts | 308° |
| 2026-05-05 18:19 | 65.98267 | -22.63464 | 10513 ft | 301 kts | 308° |
| 2026-05-05 18:19 | 65.99313 | -22.67236 | 10463 ft | 287 kts | 307° |
| 2026-05-05 18:19 | 66.00365 | -22.71046 | 10324 ft | 277 kts | 307° |
| 2026-05-05 18:20 | 66.01394 | -22.74773 | 9965 ft | 276 kts | 307° |
| 2026-05-05 18:20 | 66.02116 | -22.77389 | 9742 ft | 274 kts | 307° |
| 2026-05-05 18:20 | 66.02808 | -22.79898 | 9534 ft | 272 kts | 307° |
| 2026-05-05 18:20 | 66.03462 | -22.82274 | 9336 ft | 271 kts | 307° |
| 2026-05-05 18:21 | 66.04163 | -22.84828 | 9128 ft | 269 kts | 307° |
| 2026-05-05 18:21 | 66.05196 | -22.88592 | 8827 ft | 267 kts | 308° |
| 2026-05-05 18:21 | 66.06229 | -22.92364 | 8522 ft | 265 kts | 308° |
| 2026-05-05 18:21 | 66.07244 | -22.96075 | 8221 ft | 264 kts | 308° |
| 2026-05-05 18:22 | 66.08253 | -22.99768 | 7921 ft | 262 kts | 308° |
| 2026-05-05 18:22 | 66.09262 | -23.03469 | 7619 ft | 261 kts | 309° |
| 2026-05-05 18:22 | 66.10188 | -23.06864 | 7340 ft | 259 kts | 309° |
| 2026-05-05 18:22 | 66.11169 | -23.10429 | 7043 ft | 258 kts | 309° |
| 2026-05-05 18:23 | 66.12163 | -23.14045 | 6745 ft | 257 kts | 309° |
| 2026-05-05 18:23 | 66.13148 | -23.17651 | 6447 ft | 256 kts | 309° |
| 2026-05-05 18:23 | 66.13841 | -23.20199 | 6235 ft | 255 kts | 309° |
| 2026-05-05 18:23 | 66.14554 | -23.22826 | 6018 ft | 254 kts | 309° |
| 2026-05-05 18:24 | 66.14970 | -23.24365 | 5891 ft | 253 kts | 309° |
| 2026-05-05 18:24 | 66.15299 | -23.25585 | 5789 ft | 253 kts | 309° |
| 2026-05-05 18:24 | 66.15646 | -23.26872 | 5684 ft | 252 kts | 309° |
| 2026-05-05 18:24 | 66.16256 | -23.29137 | 5495 ft | 252 kts | 309° |
| 2026-05-05 18:25 | 66.17065 | -23.32142 | 5249 ft | 250 kts | 309° |
| 2026-05-05 18:25 | 66.17584 | -23.34072 | 5091 ft | 250 kts | 309° |
| 2026-05-05 18:25 | 66.18379 | -23.37035 | 4847 ft | 249 kts | 309° |
| 2026-05-05 18:25 | 66.18989 | -23.39256 | 4654 ft | 247 kts | 313° |
| 2026-05-05 18:26 | 66.19778 | -23.41174 | 4428 ft | 241 kts | 332° |
| 2026-05-05 18:26 | 66.21035 | -23.42352 | 4186 ft | 233 kts | 356° |
| 2026-05-05 18:26 | 66.22571 | -23.41890 | 3897 ft | 229 kts | 22° |
| 2026-05-05 18:26 | 66.23847 | -23.39634 | 3638 ft | 228 kts | 46° |
| 2026-05-05 18:27 | 66.24807 | -23.36864 | 3626 ft | 215 kts | 48° |
| 2026-05-05 18:27 | 66.25390 | -23.34919 | 3581 ft | 209 kts | 59° |
| 2026-05-05 18:27 | 66.25656 | -23.32744 | 3499 ft | 209 kts | 82° |
| 2026-05-05 18:27 | 66.25374 | -23.29494 | 3350 ft | 214 kts | 115° |
| 2026-05-05 18:28 | 66.23473 | -23.24894 | 3081 ft | 210 kts | 136° |
| 2026-05-05 18:28 | 66.22554 | -23.23060 | 3003 ft | 208 kts | 136° |
| 2026-05-05 18:28 | 66.21845 | -23.21629 | 2996 ft | 209 kts | 136° |
| 2026-05-05 18:29 | 66.21086 | -23.20108 | 2994 ft | 210 kts | 138° |
| 2026-05-05 18:29 | 66.20300 | -23.18735 | 2993 ft | 211 kts | 142° |
| 2026-05-05 18:29 | 66.19442 | -23.17347 | 2943 ft | 212 kts | 143° |
| 2026-05-05 18:29 | 66.18534 | -23.16008 | 2848 ft | 208 kts | 147° |
| 2026-05-05 18:30 | 66.17731 | -23.14984 | 2766 ft | 205 kts | 149° |
| 2026-05-05 18:30 | 66.16967 | -23.14062 | 2688 ft | 201 kts | 150° |
| 2026-05-05 18:30 | 66.16047 | -23.13063 | 2569 ft | 198 kts | 153° |
| 2026-05-05 18:30 | 66.15132 | -23.12174 | 2452 ft | 192 kts | 155° |
| 2026-05-05 18:31 | 66.14262 | -23.11363 | 2335 ft | 185 kts | 155° |
| 2026-05-05 18:31 | 66.13403 | -23.10576 | 2201 ft | 180 kts | 156° |
| 2026-05-05 18:31 | 66.12569 | -23.09951 | 2072 ft | 175 kts | 161° |
| 2026-05-05 18:31 | 66.11717 | -23.09436 | 1996 ft | 166 kts | 163° |
| 2026-05-05 18:32 | 66.10985 | -23.09049 | 1977 ft | 157 kts | 169° |
| 2026-05-05 18:32 | 66.10264 | -23.09010 | 1988 ft | 159 kts | 182° |
| 2026-05-05 18:32 | 66.09476 | -23.09329 | 1945 ft | 154 kts | 197° |
| 2026-05-05 18:32 | 66.08772 | -23.10090 | 1747 ft | 154 kts | 211° |
| 2026-05-05 18:33 | 66.08091 | -23.11216 | 1484 ft | 156 kts | 221° |
| 2026-05-05 18:33 | 66.07493 | -23.12656 | 1207 ft | 155 kts | 232° |
| 2026-05-05 18:33 | 66.06986 | -23.14180 | 960 ft | 151 kts | 239° |
| 2026-05-05 18:33 | 66.06523 | -23.15816 | 675 ft | 152 kts | 235° |
| 2026-05-05 18:34 | 66.05823 | -23.16699 | 417 ft | 144 kts | 162° |
| 2026-05-05 18:34 | 66.05398 | -23.15838 | 290 ft | 124 kts | 86° |
| 2026-05-05 18:34 | 66.05592 | -23.14473 | 37 ft | 113 kts | 54° |
| 2026-05-05 18:34 | 66.05805 | -23.13540 | 35 ft | 59 kts | 63° |
| 2026-05-05 18:35 | 66.05878 | -23.13169 | 43 ft | 23 kts | 63° |
| 2026-05-05 18:35 | 66.05905 | -23.13115 | 44 ft | 8 kts | 249° |
| 2026-05-05 18:35 | 66.05880 | -23.13250 | 40 ft | 15 kts | 244° |
| 2026-05-05 18:35 | 66.05812 | -23.13551 | 35 ft | 42 kts | 243° |
| 2026-05-05 18:36 | 66.05712 | -23.13992 | 28 ft | 39 kts | 242° |
| 2026-05-05 18:36 | 66.05640 | -23.14299 | 21 ft | 8 kts | 190° |
| 2026-05-05 18:36 | 66.05607 | -23.14260 | 24 ft | 5 kts | 152° |
| 2026-05-05 18:36 | 66.05580 | -23.14233 | 26 ft | 5 kts | 184° |
| 2026-05-05 18:37 | 66.05567 | -23.14273 | 25 ft | 0 kts | 237° |